createdAt,value
2018-12-13T00:01:04.363Z,2.50
2018-12-13T00:04:08.382Z,2.50
2018-12-13T00:07:12.402Z,2.40
2018-12-13T00:10:16.411Z,2.40
2018-12-13T00:13:20.971Z,2.30
2018-12-13T00:16:25.175Z,2.20
2018-12-13T00:19:29.267Z,2.20
2018-12-13T00:22:33.279Z,2.20
2018-12-13T00:25:37.315Z,2.10
2018-12-13T00:28:41.372Z,2.10
2018-12-13T00:31:45.445Z,2.00
2018-12-13T00:34:49.494Z,2.00
2018-12-13T00:37:53.517Z,1.90
2018-12-13T00:40:57.577Z,1.90
2018-12-13T00:44:01.674Z,1.90
2018-12-13T00:47:05.762Z,1.90
2018-12-13T00:50:09.950Z,1.80
2018-12-13T00:53:13.979Z,1.80
2018-12-13T00:56:17.989Z,1.70
2018-12-13T00:59:22.005Z,1.70
2018-12-13T01:02:26.021Z,1.70
2018-12-13T01:05:30.051Z,1.70
2018-12-13T01:08:34.168Z,1.70
2018-12-13T01:11:38.185Z,1.70
2018-12-13T01:14:42.221Z,1.70
2018-12-13T01:17:46.255Z,1.70
2018-12-13T01:20:50.282Z,1.70
2018-12-13T01:23:54.318Z,1.70
2018-12-13T01:26:58.326Z,1.70
2018-12-13T01:30:02.361Z,1.60
2018-12-13T01:33:07.203Z,1.60
2018-12-13T01:36:11.253Z,1.60
2018-12-13T01:39:15.312Z,1.60
2018-12-13T01:42:19.322Z,1.50
2018-12-13T01:45:23.340Z,1.50
2018-12-13T01:48:27.362Z,1.50
2018-12-13T01:51:31.490Z,1.50
2018-12-13T01:54:35.525Z,1.40
2018-12-13T01:57:39.566Z,1.50
2018-12-13T02:00:43.597Z,1.40
2018-12-13T02:03:47.643Z,1.40
2018-12-13T02:06:51.673Z,1.40
2018-12-13T02:09:55.711Z,1.40
2018-12-13T02:12:59.728Z,1.30
2018-12-13T02:16:03.942Z,1.30
2018-12-13T02:19:07.975Z,1.30
2018-12-13T02:22:12.108Z,1.30
2018-12-13T02:25:16.135Z,1.30
2018-12-13T02:28:20.170Z,1.30
2018-12-13T02:31:24.196Z,1.30
2018-12-13T02:34:28.227Z,1.30
2018-12-13T02:37:32.275Z,1.20
2018-12-13T02:40:36.333Z,1.20
2018-12-13T02:43:40.358Z,1.20
2018-12-13T02:46:44.499Z,1.20
2018-12-13T02:49:48.534Z,1.10
2018-12-13T02:52:52.632Z,1.10
2018-12-13T02:55:56.683Z,1.10
2018-12-13T02:59:00.711Z,1.10
2018-12-13T03:02:04.911Z,1.10
2018-12-13T03:05:09.051Z,1.10
2018-12-13T03:08:13.078Z,1.10
2018-12-13T03:11:17.107Z,1.10
2018-12-13T03:14:21.188Z,1.00
2018-12-13T03:17:25.239Z,1.00
2018-12-13T03:20:29.275Z,1.00
2018-12-13T03:23:33.301Z,1.00
2018-12-13T03:26:37.533Z,1.00
2018-12-13T03:29:41.552Z,1.00
2018-12-13T03:32:45.612Z,1.00
2018-12-13T03:35:49.654Z,0.90
2018-12-13T03:38:53.692Z,0.90
2018-12-13T03:41:57.730Z,0.90
2018-12-13T03:45:01.756Z,0.90
2018-12-13T03:48:05.872Z,0.90
2018-12-13T03:51:09.955Z,0.90
2018-12-13T03:54:13.984Z,0.80
2018-12-13T03:57:18.010Z,0.80
2018-12-13T04:00:22.046Z,0.80
2018-12-13T04:03:26.086Z,0.80
2018-12-13T04:06:30.106Z,0.80
2018-12-13T04:09:34.131Z,0.80
2018-12-13T04:12:38.218Z,0.80
2018-12-13T04:15:42.280Z,0.80
2018-12-13T04:18:47.061Z,0.70
2018-12-13T04:21:51.343Z,0.70
2018-12-13T04:24:55.360Z,0.60
2018-12-13T04:27:59.386Z,0.60
2018-12-13T04:31:03.417Z,0.60
2018-12-13T04:34:07.442Z,0.50
2018-12-13T04:37:11.476Z,0.50
2018-12-13T04:40:15.569Z,0.50
2018-12-13T04:43:19.679Z,0.50
2018-12-13T04:46:23.707Z,0.40
2018-12-13T04:49:27.755Z,0.50
2018-12-13T04:52:31.898Z,0.50
2018-12-13T04:55:35.924Z,0.50
2018-12-13T04:58:40.037Z,0.50
2018-12-13T05:01:44.156Z,0.50
2018-12-13T05:04:48.208Z,0.50
2018-12-13T05:07:52.238Z,0.50
2018-12-13T05:10:56.442Z,0.50
2018-12-13T05:14:00.466Z,0.50
2018-12-13T05:17:04.520Z,0.50
2018-12-13T05:20:08.283Z,0.50
2018-12-13T05:23:12.362Z,0.50
2018-12-13T05:26:16.380Z,0.50
2018-12-13T05:29:20.422Z,0.50
2018-12-13T05:32:24.479Z,0.50
2018-12-13T05:35:28.750Z,0.60
2018-12-13T05:38:32.792Z,0.50
2018-12-13T05:41:36.821Z,0.50
2018-12-13T05:44:40.854Z,0.50
2018-12-13T05:47:45.002Z,0.50
2018-12-13T05:50:49.111Z,0.50
2018-12-13T05:53:54.007Z,0.40
2018-12-13T05:56:58.122Z,0.40
2018-12-13T06:00:02.170Z,0.40
2018-12-13T06:03:06.312Z,0.40
2018-12-13T06:06:10.462Z,0.40
2018-12-13T06:09:14.516Z,0.40
2018-12-13T06:12:18.562Z,0.40
2018-12-13T06:15:22.658Z,0.40
2018-12-13T06:18:26.828Z,0.40
2018-12-13T06:21:36.685Z,0.40
2018-12-13T06:24:37.011Z,0.30
2018-12-13T06:27:41.291Z,0.30
2018-12-13T06:30:45.395Z,0.30
2018-12-13T06:33:49.423Z,0.30
2018-12-13T06:36:53.459Z,0.30
2018-12-13T06:39:57.505Z,0.30
2018-12-13T06:43:01.539Z,0.30
2018-12-13T06:46:05.568Z,0.30
2018-12-13T06:49:09.610Z,0.30
2018-12-13T06:52:13.636Z,0.30
2018-12-13T06:55:17.672Z,0.30
2018-12-13T06:58:21.683Z,0.30
2018-12-13T07:01:25.720Z,0.30
2018-12-13T07:04:29.747Z,0.40
2018-12-13T07:07:33.759Z,0.40
2018-12-13T07:10:37.956Z,0.40
2018-12-13T07:13:42.051Z,0.30
2018-12-13T07:16:46.322Z,0.30
2018-12-13T07:19:50.464Z,0.30
2018-12-13T07:22:54.494Z,0.30
2018-12-13T07:25:58.521Z,0.30
2018-12-13T07:29:03.692Z,0.30
2018-12-13T07:32:07.711Z,0.30
2018-12-13T07:35:11.744Z,0.30
2018-12-13T07:38:15.767Z,0.30
2018-12-13T07:41:19.783Z,0.30
2018-12-13T07:44:23.829Z,0.30
2018-12-13T07:47:27.944Z,0.30
2018-12-13T07:50:31.963Z,0.30
2018-12-13T07:53:35.978Z,0.30
2018-12-13T07:56:40.135Z,0.30
2018-12-13T07:59:44.156Z,0.40
2018-12-13T08:02:48.267Z,0.40
2018-12-13T08:05:52.318Z,0.40
2018-12-13T08:08:56.347Z,0.40
2018-12-13T08:12:00.375Z,0.40
2018-12-13T08:15:05.002Z,0.40
2018-12-13T08:18:09.049Z,0.50
2018-12-13T08:21:13.096Z,0.50
2018-12-13T08:24:17.183Z,0.50
2018-12-13T08:27:21.218Z,0.60
2018-12-13T08:30:25.237Z,0.70
2018-12-13T08:33:29.271Z,0.70
2018-12-13T08:36:33.307Z,0.80
2018-12-13T08:39:37.323Z,0.90
2018-12-13T08:42:41.487Z,0.90
2018-12-13T08:45:45.495Z,0.90
2018-12-13T08:48:49.533Z,0.90
2018-12-13T08:51:53.726Z,1.00
2018-12-13T08:54:58.119Z,1.00
2018-12-13T08:58:02.247Z,0.90
2018-12-13T09:01:06.476Z,1.00
2018-12-13T09:04:10.741Z,1.00
2018-12-13T09:07:14.963Z,1.00
2018-12-13T09:10:18.983Z,1.00
2018-12-13T09:13:23.014Z,1.10
2018-12-13T09:16:31.459Z,1.20
2018-12-13T09:19:33.272Z,1.20
2018-12-13T09:22:37.426Z,1.20
2018-12-13T09:25:41.478Z,1.30
2018-12-13T09:28:45.501Z,1.40
2018-12-13T09:31:49.636Z,1.50
2018-12-13T09:34:53.645Z,1.60
2018-12-13T09:37:57.687Z,1.70
2018-12-13T09:41:01.752Z,1.80
2018-12-13T09:44:07.768Z,1.90
2018-12-13T09:47:11.785Z,2.00
2018-12-13T09:50:15.807Z,2.10
2018-12-13T09:53:19.895Z,2.10
2018-12-13T09:56:23.912Z,2.10
2018-12-13T09:59:27.965Z,2.10
2018-12-13T10:02:31.946Z,2.10
2018-12-13T10:05:35.975Z,2.10
2018-12-13T10:08:46.154Z,2.10
2018-12-13T10:11:46.013Z,2.10
2018-12-13T10:14:50.041Z,2.10
2018-12-13T10:17:54.059Z,2.20
2018-12-13T10:20:58.083Z,2.20
2018-12-13T10:24:02.107Z,2.30
2018-12-13T10:27:06.148Z,2.40
2018-12-13T10:30:10.285Z,2.40
2018-12-13T10:33:14.283Z,2.50
2018-12-13T10:36:18.395Z,2.60
2018-12-13T10:39:22.461Z,2.70
2018-12-13T10:42:26.460Z,2.80
2018-12-13T10:45:30.520Z,2.70
2018-12-13T10:48:34.548Z,2.80
2018-12-13T10:51:38.578Z,2.80
2018-12-13T10:54:42.616Z,2.90
2018-12-13T10:57:46.697Z,3.00
2018-12-13T11:01:56.000Z,3.10
2018-12-13T11:05:00.036Z,3.20
2018-12-13T11:08:04.084Z,3.30
2018-12-13T11:11:08.198Z,3.30
2018-12-13T11:14:12.214Z,3.30
2018-12-13T11:17:16.258Z,3.20
2018-12-13T11:20:20.407Z,3.20
2018-12-13T11:23:24.483Z,3.20
2018-12-13T11:26:28.493Z,3.20
2018-12-13T11:29:44.767Z,3.20
2018-12-13T11:32:48.787Z,3.10
2018-12-13T11:35:52.903Z,3.10
2018-12-13T11:38:56.915Z,3.00
2018-12-13T11:42:00.950Z,3.00
2018-12-13T11:45:05.250Z,3.00
2018-12-13T11:48:09.261Z,3.00
2018-12-13T11:51:13.360Z,3.00
2018-12-13T11:54:28.846Z,3.10
2018-12-13T11:57:32.980Z,3.10
2018-12-13T12:00:37.196Z,3.20
2018-12-13T12:03:41.223Z,3.30
2018-12-13T12:06:45.345Z,3.30
2018-12-13T12:09:49.359Z,3.40
2018-12-13T12:12:53.439Z,3.50
2018-12-13T12:15:57.461Z,3.60
2018-12-13T12:19:01.514Z,3.70
2018-12-13T12:22:05.523Z,3.80
2018-12-13T12:25:09.638Z,3.80
2018-12-13T12:28:13.662Z,3.90
2018-12-13T12:31:17.694Z,3.90
2018-12-13T12:34:21.736Z,3.90
2018-12-13T12:37:25.799Z,3.90
2018-12-13T12:40:29.830Z,3.70
2018-12-13T12:43:33.843Z,3.60
2018-12-13T12:46:37.865Z,3.40
2018-12-13T12:49:41.904Z,3.30
2018-12-13T12:52:45.935Z,3.20
2018-12-13T12:55:49.959Z,3.10
2018-12-13T12:58:53.990Z,3.10
2018-12-13T13:01:58.016Z,3.10
2018-12-13T13:05:02.037Z,3.20
2018-12-13T13:08:06.151Z,3.20
2018-12-13T13:11:10.175Z,3.30
2018-12-13T13:14:14.204Z,3.40
2018-12-13T13:20:32.973Z,3.40
2018-12-13T13:23:36.988Z,3.50
2018-12-13T13:26:41.016Z,3.30
2018-12-13T13:29:45.052Z,3.20
2018-12-13T13:32:49.075Z,3.10
2018-12-13T13:35:53.106Z,3.10
2018-12-13T13:38:57.127Z,3.00
2018-12-13T13:42:01.152Z,2.90
2018-12-13T13:45:05.709Z,2.80
2018-12-13T13:48:09.820Z,2.70
2018-12-13T13:51:13.859Z,2.70
2018-12-13T13:54:17.958Z,2.70
2018-12-13T13:57:22.058Z,2.70
2018-12-13T14:00:26.103Z,2.70
2018-12-13T14:03:30.151Z,2.60
2018-12-13T14:06:34.183Z,2.60
2018-12-13T14:09:38.295Z,2.60
2018-12-13T14:12:42.340Z,2.50
2018-12-13T14:15:46.360Z,2.50
2018-12-13T14:18:50.390Z,2.60
2018-12-13T14:21:54.539Z,2.60
2018-12-13T14:24:58.556Z,2.60
2018-12-13T14:28:02.672Z,2.60
2018-12-13T14:31:06.706Z,2.70
2018-12-13T14:34:10.727Z,2.70
2018-12-13T14:37:14.747Z,2.60
2018-12-13T14:40:18.762Z,2.60
2018-12-13T14:43:22.799Z,2.60
2018-12-13T14:46:26.818Z,2.70
2018-12-13T14:49:30.859Z,2.70
2018-12-13T14:52:34.896Z,2.70
2018-12-13T14:55:38.931Z,2.80
2018-12-13T14:58:42.952Z,2.80
2018-12-13T15:01:47.055Z,2.80
2018-12-13T15:04:51.759Z,2.70
2018-12-13T15:07:55.796Z,2.70
2018-12-13T15:10:59.815Z,2.60
2018-12-13T15:14:03.919Z,2.50
2018-12-13T15:17:07.944Z,2.50
2018-12-13T15:20:11.967Z,2.50
2018-12-13T15:23:16.052Z,2.50
2018-12-13T15:26:20.098Z,2.50
2018-12-13T15:29:24.150Z,2.50
2018-12-13T15:32:28.167Z,2.60
2018-12-13T15:35:32.189Z,2.50
2018-12-13T15:38:36.309Z,2.50
2018-12-13T15:41:40.297Z,2.40
2018-12-13T15:44:46.507Z,2.40
2018-12-13T15:47:50.528Z,2.50
2018-12-13T15:50:54.554Z,2.40
2018-12-13T15:53:58.580Z,2.40
2018-12-13T15:57:02.682Z,2.40
2018-12-13T16:00:08.070Z,2.30
2018-12-13T16:03:12.088Z,2.40
2018-12-13T16:06:16.108Z,2.30
2018-12-13T16:09:20.238Z,2.40
2018-12-13T16:12:24.263Z,2.40
2018-12-13T16:15:28.293Z,2.40
2018-12-13T16:18:32.319Z,2.40
2018-12-13T16:21:36.346Z,2.50
2018-12-13T16:24:40.374Z,2.50
2018-12-13T16:27:44.397Z,2.50
2018-12-13T16:30:48.798Z,2.50
2018-12-13T16:33:53.407Z,2.50
2018-12-13T16:36:57.468Z,2.40
2018-12-13T16:40:01.501Z,2.40
2018-12-13T16:43:05.525Z,2.40
2018-12-13T16:46:09.619Z,2.40
2018-12-13T16:49:13.635Z,2.40
2018-12-13T16:52:18.221Z,2.40
2018-12-13T16:55:22.426Z,2.40
2018-12-13T16:58:26.440Z,2.30
2018-12-13T17:01:30.562Z,2.30
2018-12-13T17:04:34.659Z,2.30
2018-12-13T17:07:38.683Z,2.30
2018-12-13T17:10:42.718Z,2.30
2018-12-13T17:13:47.023Z,2.30
2018-12-13T17:16:51.072Z,2.30
2018-12-13T17:19:55.153Z,2.30
2018-12-13T17:22:59.183Z,2.20
2018-12-13T17:26:03.313Z,2.20
2018-12-13T17:29:07.354Z,2.10
2018-12-13T17:32:11.419Z,2.10
2018-12-13T17:35:15.520Z,2.20
2018-12-13T17:38:19.646Z,2.20
2018-12-13T17:41:23.710Z,2.20
2018-12-13T17:44:27.731Z,2.20
2018-12-13T17:47:31.771Z,2.20
2018-12-13T17:50:35.807Z,2.20
2018-12-13T17:53:39.947Z,2.20
2018-12-13T17:56:44.131Z,2.20
2018-12-13T17:59:48.361Z,2.20
2018-12-13T18:02:52.474Z,2.20
2018-12-13T18:05:56.479Z,2.10
2018-12-13T18:09:00.509Z,2.10
2018-12-13T18:12:04.742Z,2.10
2018-12-13T18:15:08.964Z,2.10
2018-12-13T18:18:13.119Z,2.10
2018-12-13T18:21:17.143Z,2.10
2018-12-13T18:24:21.359Z,2.10
2018-12-13T18:27:25.552Z,2.20
2018-12-13T18:30:29.609Z,2.20
2018-12-13T18:33:33.702Z,2.20
2018-12-13T18:36:37.784Z,2.20
2018-12-13T18:39:41.799Z,2.20
2018-12-13T18:42:45.981Z,2.20
2018-12-13T18:45:50.351Z,2.10
2018-12-13T18:48:54.404Z,2.20
2018-12-13T18:51:58.443Z,2.20
2018-12-13T18:55:02.534Z,2.20
2018-12-13T18:58:06.547Z,2.30
2018-12-13T19:01:10.575Z,2.30
2018-12-13T19:04:14.602Z,2.30
2018-12-13T19:07:18.636Z,2.30
2018-12-13T19:10:22.736Z,2.30
2018-12-13T19:13:26.877Z,2.30
2018-12-13T19:16:30.908Z,2.20
2018-12-13T19:19:34.951Z,2.20
2018-12-13T19:22:38.982Z,2.20
2018-12-13T19:25:43.099Z,2.20
2018-12-13T19:28:47.174Z,2.20
2018-12-13T19:31:51.200Z,2.20
2018-12-13T19:35:00.277Z,2.20
2018-12-13T19:38:01.238Z,2.20
2018-12-13T19:41:05.266Z,2.20
2018-12-13T19:44:09.370Z,2.30
2018-12-13T19:47:13.401Z,2.30
2018-12-13T19:50:17.535Z,2.30
2018-12-13T19:53:21.887Z,2.30
2018-12-13T19:56:25.907Z,2.30
2018-12-13T19:59:29.923Z,2.30
2018-12-13T20:02:34.148Z,2.30
2018-12-13T20:05:38.327Z,2.30
2018-12-13T20:08:42.455Z,2.30
2018-12-13T20:11:46.480Z,2.30
2018-12-13T20:14:50.503Z,2.30
2018-12-13T20:17:54.526Z,2.30
2018-12-13T20:20:58.548Z,2.20
2018-12-13T20:24:02.579Z,2.20
2018-12-13T20:27:06.639Z,2.20
2018-12-13T20:30:10.871Z,2.20
2018-12-13T20:33:14.923Z,2.20
2018-12-13T20:36:19.067Z,2.20
2018-12-13T20:39:23.187Z,2.20
2018-12-13T20:42:27.303Z,2.20
2018-12-13T20:45:31.407Z,2.20
2018-12-13T20:48:35.436Z,2.20
2018-12-13T20:51:39.575Z,2.10
2018-12-13T20:54:43.630Z,2.10
2018-12-13T20:57:47.788Z,2.20
2018-12-13T21:00:51.900Z,2.20
2018-12-13T21:03:55.932Z,2.30
2018-12-13T21:07:05.957Z,2.30
2018-12-13T21:10:10.795Z,2.30
2018-12-13T21:13:14.829Z,2.40
2018-12-13T21:16:18.971Z,2.30
2018-12-13T21:19:23.083Z,2.40
2018-12-13T21:22:27.179Z,2.40
2018-12-13T21:25:31.207Z,2.30
2018-12-13T21:28:35.234Z,2.20
2018-12-13T21:31:39.344Z,2.20
2018-12-13T21:34:43.399Z,2.20
2018-12-13T21:37:47.512Z,2.10
2018-12-13T21:40:51.642Z,2.00
2018-12-13T21:43:56.445Z,2.00
2018-12-13T21:47:00.486Z,1.90
2018-12-13T21:50:04.812Z,1.90
2018-12-13T21:53:08.852Z,1.80
2018-12-13T21:56:12.966Z,1.80
2018-12-13T21:59:16.994Z,1.80
2018-12-13T22:02:21.010Z,1.80
2018-12-13T22:05:25.510Z,1.80
2018-12-13T22:08:29.699Z,1.80
2018-12-13T22:11:34.721Z,1.80
2018-12-13T22:14:38.738Z,1.80
2018-12-13T22:17:42.763Z,1.80
2018-12-13T22:20:46.794Z,1.80
2018-12-13T22:23:51.603Z,1.90
2018-12-13T22:26:57.066Z,1.90
2018-12-13T22:30:01.299Z,1.90
2018-12-13T22:33:05.508Z,1.90
2018-12-13T22:36:09.978Z,1.90
2018-12-13T22:39:14.845Z,1.90
2018-12-13T22:42:19.114Z,2.00
2018-12-13T22:45:23.330Z,2.00
2018-12-13T22:48:27.367Z,2.00
2018-12-13T22:51:31.483Z,2.00
2018-12-13T22:54:35.510Z,2.00
2018-12-13T22:57:39.620Z,2.30
2018-12-13T23:00:43.908Z,2.20
2018-12-13T23:03:47.927Z,2.20
2018-12-13T23:06:51.952Z,2.10
2018-12-13T23:09:55.972Z,2.10
2018-12-13T23:13:00.095Z,2.10
2018-12-13T23:16:04.306Z,2.10
2018-12-13T23:19:08.432Z,2.10
2018-12-13T23:22:12.547Z,2.00
2018-12-13T23:25:16.568Z,2.00
2018-12-13T23:28:20.600Z,2.00
2018-12-13T23:31:24.721Z,1.90
2018-12-13T23:34:28.727Z,1.90
2018-12-13T23:37:32.759Z,1.90
2018-12-13T23:40:36.772Z,1.90
2018-12-13T23:43:40.794Z,1.90
2018-12-13T23:46:44.827Z,1.90
2018-12-13T23:49:48.838Z,1.90
2018-12-13T23:52:52.855Z,1.90
2018-12-13T23:55:57.052Z,1.90
2018-12-13T23:59:01.431Z,1.90
